Time;durP1;ratioP1;P1;durP2;ratioP2;P2;SDS_P1;SDS_P2;PMS_P1;PMS_P2;Temp;Humidity;BMP_temperature;BMP_pressure;BME280_temperature;BME280_humidity;BME280_pressure;Samples;Min_cycle;Max_cycle;Signal;HPM_P1;HPM_P2
2021/03/18 00:01:45;;;;;;;8.55;2.38;;;3.60;92.00;;;;;;4898658;29;20071;-84
2021/03/18 00:04:16;;;;;;;6.38;2.40;;;3.60;92.00;;;;;;4898504;29;20156;-84
2021/03/18 00:06:43;;;;;;;9.98;2.72;;;3.60;92.00;;;;;;4882392;29;20056;-84
2021/03/18 00:09:10;;;;;;;8.50;2.30;;;3.60;92.00;;;;;;4879006;29;20053;-85
2021/03/18 00:11:41;;;;;;;9.43;2.65;;;3.50;92.00;;;;;;4880500;29;20140;-85
2021/03/18 00:14:17;;;;;;;7.05;2.58;;;3.50;92.10;;;;;;4880216;29;20053;-84
2021/03/18 00:16:44;;;;;;;8.85;2.40;;;3.50;92.10;;;;;;4879816;29;20052;-85
2021/03/18 00:19:10;;;;;;;8.77;2.78;;;3.50;92.10;;;;;;4880975;29;20494;-85
2021/03/18 00:21:36;;;;;;;6.28;2.35;;;3.50;92.00;;;;;;4879920;29;20080;-85
2021/03/18 00:24:02;;;;;;;9.90;2.38;;;3.50;92.00;;;;;;4878892;29;20053;-85
2021/03/18 00:26:30;;;;;;;8.82;2.33;;;3.50;92.00;;;;;;4879658;29;20048;-84
2021/03/18 00:28:59;;;;;;;7.00;2.28;;;3.50;92.00;;;;;;4898947;29;20055;-84
2021/03/18 00:31:35;;;;;;;8.25;2.40;;;3.40;92.00;;;;;;4897039;29;20441;-84
2021/03/18 00:34:02;;;;;;;8.45;2.38;;;3.40;92.30;;;;;;4898355;29;20056;-84
2021/03/18 00:36:32;;;;;;;9.05;2.53;;;3.50;92.00;;;;;;4897774;29;20056;-84
2021/03/18 00:38:59;;;;;;;7.40;2.50;;;3.40;92.00;;;;;;4898409;29;20147;-84
2021/03/18 00:41:25;;;;;;;7.38;2.65;;;3.40;92.10;;;;;;4898279;29;20057;-85
2021/03/18 00:43:53;;;;;;;9.98;3.30;;;3.40;91.90;;;;;;4897576;29;20469;-84
2021/03/18 00:46:25;;;;;;;9.52;2.67;;;3.30;91.90;;;;;;4889599;29;20059;-84
2021/03/18 00:48:54;;;;;;;8.02;3.00;;;3.30;92.00;;;;;;4879609;29;20045;-86
2021/03/18 00:51:26;;;;;;;6.80;2.28;;;3.30;92.00;;;;;;4878541;29;20099;-84
2021/03/18 00:53:57;;;;;;;9.00;2.50;;;3.30;91.90;;;;;;4879167;29;20148;-85
2021/03/18 00:56:32;;;;;;;9.00;2.45;;;3.20;92.00;;;;;;4878896;29;20088;-84
2021/03/18 00:58:58;;;;;;;7.57;2.50;;;3.20;92.10;;;;;;4877942;29;20056;-84
2021/03/18 01:01:26;;;;;;;7.97;2.90;;;3.20;92.00;;;;;;4879248;29;20061;-84
2021/03/18 01:04:04;;;;;;;7.78;2.60;;;3.20;92.00;;;;;;4879158;29;20548;-83
2021/03/18 01:06:43;;;;;;;9.20;2.65;;;3.20;92.10;;;;;;4888950;29;20056;-85
2021/03/18 01:09:09;;;;;;;9.57;2.70;;;3.20;92.20;;;;;;4896992;29;20544;-84
2021/03/18 01:11:37;;;;;;;8.88;2.80;;;3.20;92.10;;;;;;4897017;29;20087;-85
2021/03/18 01:14:09;;;;;;;7.15;2.47;;;3.10;92.20;;;;;;4897782;29;20472;-84
2021/03/18 01:16:47;;;;;;;8.23;2.50;;;3.10;92.30;;;;;;4887475;29;20057;-85
2021/03/18 01:19:28;;;;;;;6.43;2.25;;;3.10;92.20;;;;;;4877785;29;20112;-84
2021/03/18 01:21:56;;;;;;;8.35;2.67;;;3.10;92.10;;;;;;4878888;29;20081;-84
2021/03/18 01:24:37;;;;;;;9.35;2.90;;;3.10;92.10;;;;;;4878972;29;20132;-84
2021/03/18 01:27:03;;;;;;;9.10;2.45;;;3.10;92.00;;;;;;4878101;29;20084;-84
2021/03/18 01:29:31;;;;;;;6.60;2.80;;;3.10;92.00;;;;;;4878411;29;20057;-84
2021/03/18 01:32:07;;;;;;;8.82;2.63;;;3.00;91.90;;;;;;4878930;29;20131;-84
2021/03/18 01:34:52;;;;;;;9.73;2.65;;;3.00;92.10;;;;;;4878063;29;20052;-85
2021/03/18 01:37:21;;;;;;;5.82;2.38;;;3.00;92.00;;;;;;4878190;29;20137;-85
2021/03/18 01:43:04;;;;;;;10.88;2.90;;;2.90;92.20;;;;;;4896329;29;20104;-85
2021/03/18 01:45:30;;;;;;;11.77;2.53;;;2.90;92.10;;;;;;4895601;29;20052;-84
2021/03/18 01:48:04;;;;;;;7.38;3.00;;;2.90;92.10;;;;;;4896758;29;20060;-84
2021/03/18 01:50:32;;;;;;;8.43;2.78;;;2.90;92.20;;;;;;4897425;29;20044;-84
2021/03/18 01:53:01;;;;;;;9.75;3.00;;;2.90;92.20;;;;;;4897292;29;20075;-84
2021/03/18 01:55:31;;;;;;;9.35;2.70;;;2.90;92.20;;;;;;4896132;29;20087;-83
2021/03/18 01:58:06;;;;;;;6.82;2.75;;;2.90;92.30;;;;;;4897096;29;20049;-84
2021/03/18 02:00:34;;;;;;;8.57;2.83;;;2.90;92.20;;;;;;4897040;29;20115;-84
2021/03/18 02:03:02;;;;;;;9.15;2.90;;;3.00;92.60;;;;;;4896314;29;20048;-84
2021/03/18 02:05:29;;;;;;;9.25;2.92;;;3.00;92.30;;;;;;4891832;29;20049;-83
2021/03/18 02:07:58;;;;;;;7.30;2.80;;;2.90;92.10;;;;;;4888890;29;20060;-83
2021/03/18 02:10:29;;;;;;;9.63;2.70;;;2.90;92.20;;;;;;4895504;29;20489;-84
2021/03/18 02:12:56;;;;;;;10.52;2.88;;;2.90;92.10;;;;;;4897082;29;20144;-83
2021/03/18 02:15:28;;;;;;;9.60;3.40;;;2.80;92.00;;;;;;4893753;29;20454;-84
2021/03/18 02:17:58;;;;;;;7.05;2.90;;;2.80;91.90;;;;;;4877781;29;20053;-84
2021/03/18 02:20:59;;;;;;;7.72;2.80;;;2.80;91.80;;;;;;4886605;29;20135;-84
2021/03/18 02:23:40;;;;;;;7.85;3.17;;;2.80;91.80;;;;;;4888329;29;20056;-84
2021/03/18 02:26:33;;;;;;;6.55;2.85;;;2.70;91.90;;;;;;4891338;29;20088;-83
2021/03/18 02:29:30;;;;;;;9.38;3.10;;;2.80;92.10;;;;;;4887084;29;20052;-83
2021/03/18 02:32:20;;;;;;;8.35;2.80;;;2.70;92.00;;;;;;4895278;29;20076;-84
2021/03/18 02:35:18;;;;;;;9.63;3.15;;;2.70;92.10;;;;;;4896648;29;20450;-84
2021/03/18 02:37:57;;;;;;;8.27;3.08;;;2.70;92.10;;;;;;4896123;29;20390;-84
2021/03/18 02:40:25;;;;;;;8.88;3.33;;;2.70;92.00;;;;;;4896346;29;20057;-84
2021/03/18 02:46:24;;;;;;;8.00;2.97;;;2.70;92.10;;;;;;4896472;29;20057;-84
2021/03/18 02:48:53;;;;;;;8.93;3.10;;;2.70;92.10;;;;;;4899166;29;20059;-85
2021/03/18 02:51:24;;;;;;;7.65;3.10;;;2.70;92.20;;;;;;4899035;29;20052;-85
2021/03/18 02:53:53;;;;;;;7.80;3.15;;;2.70;92.10;;;;;;4900085;29;20056;-85
2021/03/18 02:56:20;;;;;;;8.50;3.08;;;2.70;92.10;;;;;;4899808;29;20056;-85
2021/03/18 02:58:54;;;;;;;10.70;3.60;;;2.70;92.10;;;;;;4899137;29;20075;-85
2021/03/18 03:01:28;;;;;;;10.23;3.92;;;2.70;92.20;;;;;;4899845;29;20119;-85
2021/03/18 03:03:55;;;;;;;11.65;3.90;;;2.70;92.20;;;;;;4898923;29;20112;-85
2021/03/18 03:06:22;;;;;;;10.02;4.30;;;2.60;92.20;;;;;;4899033;29;20072;-85
2021/03/18 03:08:48;;;;;;;11.80;4.50;;;2.70;92.30;;;;;;4899958;29;20453;-85
2021/03/18 03:11:19;;;;;;;10.43;4.18;;;2.60;92.20;;;;;;4898651;29;20144;-85
2021/03/18 03:13:46;;;;;;;10.38;5.00;;;2.60;92.20;;;;;;4899859;29;20056;-85
2021/03/18 03:16:16;;;;;;;10.57;4.70;;;2.60;92.20;;;;;;4884406;29;20466;-84
2021/03/18 03:18:53;;;;;;;9.80;4.78;;;2.70;92.30;;;;;;4880323;29;20053;-85
2021/03/18 03:21:21;;;;;;;11.50;5.30;;;2.70;92.30;;;;;;4880882;29;20108;-84
2021/03/18 03:23:48;;;;;;;10.63;5.50;;;2.70;92.20;;;;;;4892554;29;20056;-84
2021/03/18 03:26:17;;;;;;;11.38;5.68;;;2.70;92.10;;;;;;4898725;29;20465;-84
2021/03/18 03:28:43;;;;;;;12.95;6.20;;;2.70;92.10;;;;;;4894697;29;20103;-84
2021/03/18 03:31:09;;;;;;;13.25;6.00;;;2.70;92.10;;;;;;4880620;29;20132;-84
2021/03/18 03:33:36;;;;;;;12.07;5.68;;;2.60;92.10;;;;;;4880122;29;20132;-84
2021/03/18 03:36:02;;;;;;;11.75;5.85;;;2.60;92.10;;;;;;4895553;29;20057;-84
2021/03/18 03:38:32;;;;;;;12.50;5.78;;;2.60;92.10;;;;;;4899383;29;20419;-84
2021/03/18 03:40:58;;;;;;;13.10;5.65;;;2.60;92.20;;;;;;4898751;29;20131;-85
2021/03/18 03:43:27;;;;;;;13.60;6.72;;;2.50;92.10;;;;;;4898497;29;20136;-85
2021/03/18 03:45:59;;;;;;;10.50;5.70;;;2.50;92.00;;;;;;4883150;29;20057;-84
2021/03/18 03:48:29;;;;;;;11.93;5.95;;;2.50;92.00;;;;;;4879827;29;20057;-84
2021/03/18 03:51:03;;;;;;;14.07;6.75;;;2.40;91.90;;;;;;4880677;29;20063;-84
2021/03/18 03:53:47;;;;;;;;;;;2.40;92.00;;;;;;4880237;29;20071;-84
2021/03/18 03:56:55;;;;;;;14.63;6.38;;;2.30;91.40;;;;;;4880489;29;19923;-85
2021/03/18 03:59:22;;;;;;;13.65;6.07;;;2.30;92.00;;;;;;4864400;29;20061;-85
2021/03/18 04:01:56;;;;;;;13.38;6.43;;;2.30;92.00;;;;;;4879544;29;20084;-84
2021/03/18 04:04:46;;;;;;;12.07;6.07;;;2.30;92.10;;;;;;4879914;29;20063;-84
2021/03/18 04:07:34;;;;;;;15.45;6.53;;;2.30;92.10;;;;;;4880064;29;20069;-84
2021/03/18 04:10:02;;;;;;;12.25;5.95;;;2.40;92.20;;;;;;4880101;29;20065;-84
2021/03/18 04:12:36;;;;;;;20.15;6.22;;;2.30;92.20;;;;;;4892400;29;20048;-85
2021/03/18 04:15:12;;;;;;;10.07;5.22;;;2.30;92.60;;;;;;4898165;29;20449;-84
2021/03/18 04:17:43;;;;;;;12.38;6.18;;;2.30;92.20;;;;;;4899022;29;20056;-84
2021/03/18 04:20:12;;;;;;;11.23;5.63;;;2.30;92.20;;;;;;4898558;29;20055;-84
2021/03/18 04:22:40;;;;;;;12.38;5.18;;;2.30;92.30;;;;;;4880943;29;20052;-84
2021/03/18 04:25:07;;;;;;;11.48;5.35;;;2.30;92.30;;;;;;4898515;29;20056;-85
2021/03/18 04:27:35;;;;;;;9.85;4.78;;;2.40;92.30;;;;;;4898320;29;20076;-85
2021/03/18 04:30:05;;;;;;;12.27;5.07;;;2.30;92.40;;;;;;4896105;29;20064;-84
2021/03/18 04:32:32;;;;;;;10.32;4.93;;;2.40;92.40;;;;;;4897979;29;20389;-85
2021/03/18 04:34:58;;;;;;;12.10;5.25;;;2.40;92.30;;;;;;4898331;29;20052;-85
2021/03/18 04:37:28;;;;;;;11.98;5.40;;;2.40;92.30;;;;;;4897407;29;20052;-85
2021/03/18 04:40:05;;;;;;;10.93;5.05;;;2.40;92.30;;;;;;4892369;29;20049;-83
2021/03/18 04:42:30;;;;;;;9.75;4.78;;;2.40;92.30;;;;;;4879584;29;20088;-84
2021/03/18 04:45:05;;;;;;;10.23;5.03;;;2.40;92.20;;;;;;4879089;29;20151;-85
2021/03/18 04:47:54;;;;;;;13.57;4.90;;;2.50;92.20;;;;;;4878959;29;20443;-84
2021/03/18 04:50:24;;;;;;;12.70;4.88;;;2.50;92.20;;;;;;4878681;29;20059;-85
2021/03/18 04:53:05;;;;;;;11.20;4.72;;;2.50;92.10;;;;;;4879776;29;20053;-85
2021/03/18 04:55:31;;;;;;;9.93;5.00;;;2.50;92.20;;;;;;4879133;29;20414;-85
2021/03/18 04:58:04;;;;;;;10.05;4.60;;;2.50;92.20;;;;;;4878763;29;20053;-84
2021/03/18 05:00:30;;;;;;;13.38;4.40;;;2.50;92.20;;;;;;4879211;29;20422;-84
2021/03/18 05:03:01;;;;;;;12.00;5.13;;;2.50;92.20;;;;;;4883775;29;20048;-85
2021/03/18 05:05:35;;;;;;;12.23;4.75;;;2.50;92.10;;;;;;4880887;29;20063;-85
2021/03/18 05:08:02;;;;;;;9.43;4.55;;;2.50;92.10;;;;;;4879399;29;20418;-84
2021/03/18 05:10:32;;;;;;;10.85;4.50;;;2.50;92.10;;;;;;4887416;29;20167;-85
2021/03/18 05:13:02;;;;;;;10.23;4.30;;;2.50;92.10;;;;;;4877805;29;20061;-85
2021/03/18 05:15:29;;;;;;;9.30;4.57;;;2.60;92.10;;;;;;4878827;29;20455;-85
2021/03/18 05:17:55;;;;;;;10.15;4.60;;;2.50;92.00;;;;;;4878645;29;20045;-85
2021/03/18 05:20:24;;;;;;;11.68;4.28;;;2.50;92.00;;;;;;4879068;29;20520;-85
2021/03/18 05:22:51;;;;;;;10.88;4.50;;;2.50;92.00;;;;;;4879338;29;20053;-84
2021/03/18 05:25:28;;;;;;;8.63;4.00;;;2.50;92.00;;;;;;4882540;29;20045;-85
2021/03/18 05:27:55;;;;;;;9.73;4.30;;;2.60;92.00;;;;;;4897425;29;20080;-84
2021/03/18 05:30:21;;;;;;;8.68;4.35;;;2.50;91.90;;;;;;4897451;29;20428;-84
2021/03/18 05:32:50;;;;;;;8.48;3.67;;;2.50;91.90;;;;;;4896956;29;20100;-84
2021/03/18 05:35:16;;;;;;;8.65;3.97;;;2.60;91.90;;;;;;4897286;29;20072;-84
2021/03/18 05:37:51;;;;;;;11.82;4.18;;;2.60;91.80;;;;;;4897490;29;20501;-84
2021/03/18 05:40:17;;;;;;;9.90;4.05;;;2.50;91.90;;;;;;4884278;29;20082;-84
2021/03/18 05:42:43;;;;;;;9.30;4.20;;;2.50;91.80;;;;;;4878774;29;20057;-85
2021/03/18 05:45:13;;;;;;;10.35;4.57;;;2.60;91.90;;;;;;4893740;29;20099;-85
2021/03/18 05:47:39;;;;;;;10.23;4.47;;;2.60;92.00;;;;;;4896903;29;20052;-84
2021/03/18 05:50:35;;;;;;;8.65;3.88;;;2.60;92.00;;;;;;4897474;29;20088;-84
2021/03/18 05:53:24;;;;;;;8.77;3.78;;;2.60;92.00;;;;;;4837314;29;20057;-85
2021/03/18 05:55:51;;;;;;;8.52;4.05;;;2.60;91.90;;;;;;4839635;29;20060;-85
2021/03/18 05:58:20;;;;;;;10.52;4.38;;;2.60;91.80;;;;;;4873909;29;20085;-85
2021/03/18 06:00:48;;;;;;;9.38;4.22;;;2.60;91.80;;;;;;4895259;29;20123;-84
2021/03/18 06:03:15;;;;;;;10.98;4.40;;;2.60;91.80;;;;;;4897041;29;20049;-84
2021/03/18 06:05:52;;;;;;;8.73;4.07;;;2.60;91.80;;;;;;4889399;29;20068;-85
2021/03/18 06:08:19;;;;;;;8.35;3.95;;;2.60;91.80;;;;;;4895089;29;20048;-85
2021/03/18 06:10:45;;;;;;;10.07;3.85;;;2.70;91.80;;;;;;4887659;29;20512;-85
2021/03/18 06:13:11;;;;;;;8.00;3.58;;;2.60;91.70;;;;;;4886503;29;20116;-85
2021/03/18 06:15:36;;;;;;;8.98;3.70;;;2.70;91.70;;;;;;4895239;29;20059;-83
2021/03/18 06:18:03;;;;;;;10.82;3.65;;;2.60;91.60;;;;;;4894631;29;20454;-85
2021/03/18 06:20:31;;;;;;;10.80;3.90;;;2.70;91.60;;;;;;4889899;29;20127;-85
2021/03/18 06:22:59;;;;;;;10.77;3.70;;;2.70;91.60;;;;;;4879361;29;20067;-84
2021/03/18 06:25:28;;;;;;;9.32;3.90;;;2.70;91.60;;;;;;4882141;29;20061;-84
2021/03/18 06:28:21;;;;;;;9.18;4.10;;;2.70;91.60;;;;;;4897241;29;20052;-84
2021/03/18 06:30:58;;;;;;;7.28;3.40;;;2.70;91.50;;;;;;4897241;29;20131;-85
2021/03/18 06:33:37;;;;;;;8.25;3.58;;;2.70;91.50;;;;;;4897910;29;20045;-85
2021/03/18 06:36:21;;;;;;;10.50;3.50;;;2.70;91.40;;;;;;4891137;29;20143;-87
2021/03/18 06:39:10;;;;;;;8.55;3.33;;;2.70;91.40;;;;;;4900310;29;20052;-86
2021/03/18 06:41:40;;;;;;;9.95;3.80;;;2.70;91.40;;;;;;4897507;29;20135;-86
2021/03/18 07:02:09;;;;;;;8.32;4.05;;;2.80;91.20;;;;;;4890986;29;20053;-84
2021/03/18 07:04:40;;;;;;;8.23;3.53;;;2.80;91.20;;;;;;4897850;29;20048;-82
2021/03/18 07:07:55;;;;;;;6.93;3.40;;;2.90;91.30;;;;;;4860900;29;20063;-82
2021/03/18 07:10:51;;;;;;;7.78;3.33;;;2.90;91.40;;;;;;4893543;29;20560;-83
2021/03/18 07:13:31;;;;;;;8.00;3.30;;;2.90;91.10;;;;;;4854029;29;20081;-82
2021/03/18 07:16:07;;;;;;;8.88;3.40;;;3.00;91.40;;;;;;4866713;29;20200;-82
2021/03/18 07:18:54;;;;;;;7.80;3.70;;;2.90;91.40;;;;;;4888037;29;20131;-82
2021/03/18 07:22:07;;;;;;;6.93;3.30;;;3.00;91.40;;;;;;4894055;29;20061;-81
2021/03/18 07:24:53;;;;;;;8.32;3.08;;;3.00;91.50;;;;;;4882432;29;20049;-82
2021/03/18 07:27:22;;;;;;;5.40;2.78;;;3.10;91.40;;;;;;4894629;29;20062;-82
2021/03/18 07:30:04;;;;;;;7.43;3.03;;;3.10;91.40;;;;;;4899678;29;20482;-82
2021/03/18 07:32:32;;;;;;;8.43;3.55;;;3.10;91.30;;;;;;4895547;29;20127;-81
2021/03/18 07:34:58;;;;;;;7.50;3.15;;;3.10;91.30;;;;;;4914193;23;20090;-82
2021/03/18 07:37:23;;;;;;;9.07;3.42;;;3.20;91.30;;;;;;4952031;28;20484;-82
2021/03/18 07:40:05;;;;;;;12.13;3.92;;;3.20;91.30;;;;;;4942424;28;20051;-82
2021/03/18 07:42:34;;;;;;;9.90;3.55;;;3.20;91.40;;;;;;4936357;29;20060;-81
2021/03/18 07:45:02;;;;;;;11.40;3.65;;;3.20;91.50;;;;;;4928341;29;20052;-82
2021/03/18 07:47:29;;;;;;;8.80;3.42;;;3.30;91.60;;;;;;4941348;29;20779;-83
2021/03/18 07:50:01;;;;;;;15.63;4.32;;;3.30;91.50;;;;;;4947567;29;20083;-82
2021/03/18 07:52:28;;;;;;;10.95;3.67;;;3.40;91.70;;;;;;4949576;29;20048;-82
2021/03/18 07:54:59;;;;;;;14.80;4.65;;;3.40;91.70;;;;;;4940269;29;20051;-82
2021/03/18 07:57:24;;;;;;;14.52;4.60;;;3.40;91.80;;;;;;4954896;28;20166;-83
2021/03/18 08:00:25;;;;;;;14.23;4.65;;;3.50;91.80;;;;;;4923225;29;20083;-81
2021/03/18 08:06:57;;;;;;;13.45;4.78;;;3.60;92.00;;;;;;4943166;28;20134;-81
2021/03/18 08:13:01;;;;;;;;;;;3.70;92.00;;;;;;4940420;29;20050;-83
2021/03/18 08:26:04;;;;;;;14.23;4.53;;;3.90;92.00;;;;;;5078423;23;20058;31
2021/03/18 08:37:34;;;;;;;10.93;4.47;;;4.10;92.10;;;;;;4838504;29;20061;-84
2021/03/18 09:17:17;;;;;;;;;;;;;;;;;;;;;
2021/03/18 09:20:01;;;;;;;17.48;4.70;;;4.90;92.50;;;;;;4846079;29;20069;-89
2021/03/18 09:23:24;;;;;;;18.92;5.25;;;4.90;92.40;;;;;;4858458;29;20483;-86
2021/03/18 09:26:22;;;;;;;18.00;5.93;;;5.00;92.90;;;;;;4831068;29;20543;-81
2021/03/18 09:28:54;;;;;;;22.52;6.38;;;5.00;92.60;;;;;;4851088;29;20061;-85
2021/03/18 09:32:24;;;;;;;;;;;;;;;;;;;;;
2021/03/18 09:35:11;;;;;;;19.55;5.50;;;5.20;92.70;;;;;;4838258;29;20061;-84
2021/03/18 09:37:57;;;;;;;25.92;5.88;;;5.20;92.70;;;;;;4858057;29;20120;-84
2021/03/18 09:41:27;;;;;;;20.27;4.82;;;5.30;92.80;;;;;;4848622;29;20517;-85
2021/03/18 09:44:30;;;;;;;23.42;5.07;;;5.30;92.70;;;;;;4841676;29;20049;-84
2021/03/18 10:01:27;;;;;;;25.70;4.93;;;5.60;92.60;;;;;;4885046;29;20063;-84
2021/03/18 10:11:28;;;;;;;30.00;5.55;;;5.90;92.50;;;;;;4894124;29;20048;-86
2021/03/18 10:14:06;;;;;;;25.05;4.47;;;6.00;92.50;;;;;;4896291;29;20053;-86
2021/03/18 10:21:28;;;;;;;24.17;5.00;;;6.30;92.20;;;;;;4876266;29;20048;-86
2021/03/18 10:24:00;;;;;;;19.60;4.45;;;6.40;92.00;;;;;;4874540;29;20484;-86
2021/03/18 10:26:29;;;;;;;32.42;4.97;;;6.40;91.80;;;;;;4874129;29;20529;-88
2021/03/18 10:29:03;;;;;;;27.92;4.85;;;6.50;91.80;;;;;;4884986;29;20052;-87
2021/03/18 10:31:39;;;;;;;21.60;3.60;;;6.50;91.70;;;;;;4902750;23;20619;-87
2021/03/18 10:35:01;;;;;;;23.85;3.85;;;6.60;91.50;;;;;;4912095;29;20060;-88
2021/03/18 10:37:38;;;;;;;21.92;3.72;;;6.70;91.20;;;;;;4852486;29;20049;-88
2021/03/18 10:44:00;;;;;;;19.83;3.63;;;6.70;90.80;;;;;;4788850;29;20141;-85
2021/03/18 10:46:37;;;;;;;16.45;3.35;;;6.80;90.70;;;;;;4853545;29;20050;-86
2021/03/18 10:49:30;;;;;;;17.50;2.95;;;6.90;90.40;;;;;;4888585;29;20091;-86
2021/03/18 10:52:01;;;;;;;17.95;2.65;;;6.90;90.10;;;;;;4912520;29;20556;-85
2021/03/18 10:58:26;;;;;;;17.77;3.33;;;6.80;89.70;;;;;;4906988;29;20051;-87
2021/03/18 11:09:04;;;;;;;16.95;2.55;;;6.90;89.20;;;;;;4904787;29;20046;-86
2021/03/18 11:12:21;;;;;;;14.50;2.20;;;7.00;88.90;;;;;;4836949;29;20106;-87
2021/03/18 11:19:07;;;;;;;13.32;2.53;;;7.10;88.00;;;;;;4832932;29;20070;-89
2021/03/18 11:21:40;;;;;;;13.13;2.30;;;7.10;87.70;;;;;;4834975;29;20085;-89
2021/03/18 11:24:57;;;;;;;13.65;2.13;;;7.10;87.70;;;;;;4901188;29;20048;-91
2021/03/18 11:27:26;;;;;;;10.77;2.13;;;7.20;87.80;;;;;;4918448;29;20096;-92
2021/03/18 11:30:00;;;;;;;13.45;2.10;;;7.20;87.20;;;;;;4917592;29;20059;-86
2021/03/18 11:52:56;;;;;;;9.52;1.63;;;7.20;86.10;;;;;;4862481;23;20051;-90
2021/03/18 12:15:25;;;;;;;13.30;2.22;;;7.10;88.30;;;;;;6021833;23;20112;31
2021/03/18 12:23:28;;;;;;;13.55;2.50;;;7.10;89.10;;;;;;4905439;29;20036;-84
2021/03/18 12:25:57;;;;;;;15.98;2.58;;;7.10;89.10;;;;;;4898470;29;20045;-85
2021/03/18 12:28:54;;;;;;;11.93;2.10;;;7.10;89.30;;;;;;4899058;29;20060;-85
2021/03/18 12:31:29;;;;;;;11.60;2.20;;;7.10;89.80;;;;;;4894270;29;20049;-86
2021/03/18 12:34:35;;;;;;;;;;;7.20;90.00;;;;;;4834071;29;20066;-86
2021/03/18 12:37:26;;;;;;;10.25;1.80;;;7.10;89.70;;;;;;4844820;29;19976;-85
2021/03/18 12:41:25;;;;;;;13.43;2.47;;;7.20;90.10;;;;;;4788319;29;20063;-85
2021/03/18 12:47:50;;;;;;;19.58;2.85;;;7.30;90.20;;;;;;4769112;29;20184;-85
2021/03/18 12:50:30;;;;;;;;;;;;;;;;;;;;;
2021/03/18 12:57:23;;;;;;;11.25;1.90;;;7.40;90.20;;;;;;4787352;29;20073;-89
2021/03/18 13:00:31;;;;;;;11.98;2.05;;;7.50;90.30;;;;;;4822453;23;20450;-87
2021/03/18 13:24:10;;;;;;;16.30;2.70;;;7.90;88.60;;;;;;5069631;23;21539;-86
2021/03/18 14:05:04;;;;;;;16.95;2.40;;;8.20;88.30;;;;;;4906886;23;20063;-86
2021/03/18 14:07:33;;;;;;;18.98;2.97;;;8.20;88.40;;;;;;4895719;29;20096;-90
2021/03/18 14:10:02;;;;;;;12.30;2.55;;;8.30;87.80;;;;;;4896181;29;20053;-87
2021/03/18 14:12:27;;;;;;;18.13;3.08;;;8.30;88.50;;;;;;4890225;29;20052;-86
2021/03/18 14:14:53;;;;;;;15.93;2.65;;;8.30;87.50;;;;;;4897002;29;20482;-88
2021/03/18 14:17:19;;;;;;;13.40;2.42;;;8.30;87.10;;;;;;4889315;29;20383;-88
2021/03/18 14:19:44;;;;;;;16.25;2.25;;;8.20;87.60;;;;;;4892382;29;20060;-87
2021/03/18 14:22:10;;;;;;;14.82;2.65;;;8.20;87.70;;;;;;4890003;29;20061;-88
2021/03/18 14:24:36;;;;;;;16.95;2.70;;;8.30;88.10;;;;;;4892803;29;20113;-87
2021/03/18 14:27:02;;;;;;;17.38;2.70;;;8.30;87.60;;;;;;4879942;29;20057;-86
2021/03/18 14:29:28;;;;;;;15.60;2.97;;;8.30;87.80;;;;;;4896693;29;20119;-88
2021/03/18 14:31:54;;;;;;;20.75;3.22;;;8.30;88.20;;;;;;4897412;29;20163;-85
2021/03/18 14:34:22;;;;;;;25.63;3.28;;;8.30;88.80;;;;;;4896230;29;20104;-87
2021/03/18 14:36:48;;;;;;;15.02;2.67;;;8.30;87.40;;;;;;4894815;29;20053;-88
2021/03/18 14:39:15;;;;;;;17.10;2.38;;;8.30;88.00;;;;;;4898247;29;20116;-87
2021/03/18 14:41:41;;;;;;;12.55;2.53;;;8.30;88.00;;;;;;4906010;29;20111;-88
2021/03/18 14:44:07;;;;;;;16.95;2.95;;;8.40;88.30;;;;;;4906327;29;20107;-87
2021/03/18 14:46:33;;;;;;;14.27;3.17;;;8.40;88.30;;;;;;4897734;29;20508;-89
2021/03/18 14:48:59;;;;;;;16.63;2.20;;;8.40;88.10;;;;;;4889768;29;20048;-87
2021/03/18 14:51:26;;;;;;;11.57;2.42;;;8.30;88.20;;;;;;4897927;29;20402;-87
2021/03/18 14:53:54;;;;;;;10.32;1.70;;;8.40;88.30;;;;;;4897459;29;20128;-87
2021/03/18 14:56:28;;;;;;;12.20;2.33;;;8.30;88.10;;;;;;4899552;29;20060;-86
2021/03/18 14:58:54;;;;;;;9.85;1.63;;;8.20;88.20;;;;;;4922843;29;20400;-87
2021/03/18 15:01:40;;;;;;;9.75;1.58;;;8.30;88.70;;;;;;4918607;29;20056;-86
2021/03/18 15:04:06;;;;;;;11.05;2.08;;;8.30;88.50;;;;;;4919673;29;20059;-86
2021/03/18 15:06:35;;;;;;;7.78;1.48;;;8.30;88.70;;;;;;4921756;29;20074;-86
2021/03/18 15:09:02;;;;;;;11.07;2.17;;;8.30;89.00;;;;;;4926096;29;20074;-86
2021/03/18 15:11:28;;;;;;;8.50;1.67;;;8.30;88.90;;;;;;4919930;29;20214;-87
2021/03/18 15:13:53;;;;;;;9.18;1.67;;;8.30;88.70;;;;;;4910802;29;20048;-91
2021/03/18 15:16:40;;;;;;;9.88;1.63;;;8.30;88.60;;;;;;4895531;29;20053;-84
2021/03/18 15:19:21;;;;;;;8.30;1.33;;;8.30;88.70;;;;;;4906244;29;20612;-92
2021/03/18 15:21:59;;;;;;;8.85;1.70;;;8.20;87.70;;;;;;4919678;29;20105;-90
2021/03/18 15:25:26;;;;;;;10.95;1.80;;;8.20;88.30;;;;;;4916915;29;20055;-90
2021/03/18 15:31:52;;;;;;;6.72;1.40;;;8.20;89.00;;;;;;4703279;30;20048;-86
2021/03/18 15:34:32;;;;;;;5.60;1.25;;;8.10;88.40;;;;;;4734628;30;20068;-88
2021/03/18 15:36:58;;;;;;;7.38;1.20;;;8.10;88.70;;;;;;4768638;29;20222;-84
2021/03/18 15:39:33;;;;;;;5.72;1.30;;;8.00;89.40;;;;;;4862430;29;20147;-87
2021/03/18 15:42:14;;;;;;;5.95;1.13;;;8.00;89.90;;;;;;4896367;29;20158;-86
2021/03/18 15:44:45;;;;;;;4.80;1.05;;;8.00;89.80;;;;;;4899103;29;20509;-87
2021/03/18 15:47:11;;;;;;;4.90;1.02;;;8.00;89.60;;;;;;4899956;29;20056;-88
2021/03/18 15:49:45;;;;;;;3.65;0.90;;;8.00;89.60;;;;;;4899832;29;20057;-86
2021/03/18 15:52:20;;;;;;;7.03;1.15;;;8.00;89.60;;;;;;4899074;29;20058;-87
2021/03/18 15:54:56;;;;;;;5.68;1.38;;;7.90;89.70;;;;;;4899038;29;20064;-86
2021/03/18 15:57:24;;;;;;;6.18;0.88;;;7.90;89.60;;;;;;4899711;29;20158;-87
2021/03/18 16:00:13;;;;;;;4.50;0.90;;;7.90;89.20;;;;;;4899009;29;20442;-87
2021/03/18 16:02:39;;;;;;;6.97;1.00;;;7.80;88.90;;;;;;4899928;29;20063;-87
2021/03/18 16:05:18;;;;;;;4.13;0.98;;;7.80;89.10;;;;;;4898755;29;20060;-87
2021/03/18 16:07:46;;;;;;;4.25;1.00;;;7.70;89.90;;;;;;4900087;29;20057;-87
2021/03/18 16:10:15;;;;;;;6.00;1.05;;;7.80;89.70;;;;;;4899392;29;20056;-87
2021/03/18 16:12:41;;;;;;;4.88;1.08;;;7.80;90.10;;;;;;4898750;29;20055;-87
2021/03/18 16:15:08;;;;;;;6.18;1.17;;;7.80;90.20;;;;;;4899094;29;20064;-87
2021/03/18 16:17:37;;;;;;;4.82;0.98;;;7.80;90.30;;;;;;4899203;29;20049;-87
2021/03/18 16:20:04;;;;;;;4.35;0.90;;;7.80;90.10;;;;;;4898397;29;20095;-86
2021/03/18 16:22:30;;;;;;;5.70;1.10;;;7.80;90.50;;;;;;4899085;29;20053;-87
2021/03/18 16:24:56;;;;;;;8.15;1.10;;;7.80;90.50;;;;;;4899460;29;20473;-87
2021/03/18 16:27:28;;;;;;;8.85;1.30;;;7.80;90.40;;;;;;4898122;29;20063;-85
2021/03/18 16:29:53;;;;;;;9.20;1.70;;;7.80;90.30;;;;;;4899177;29;20060;-86
2021/03/18 16:32:19;;;;;;;7.57;1.77;;;7.80;90.10;;;;;;4898727;29;20124;-86
2021/03/18 16:34:51;;;;;;;8.40;1.48;;;7.80;90.00;;;;;;4897663;29;20557;-87
2021/03/18 16:37:16;;;;;;;7.53;1.45;;;7.80;90.40;;;;;;4899118;29;20156;-87
2021/03/18 16:39:42;;;;;;;9.23;1.63;;;7.70;90.30;;;;;;4899334;29;20509;-86
2021/03/18 16:42:13;;;;;;;4.43;1.30;;;7.70;90.40;;;;;;4898488;29;20128;-86
2021/03/18 16:44:44;;;;;;;5.13;1.25;;;7.70;90.70;;;;;;4899050;29;20045;-87
2021/03/18 16:50:56;;;;;;;7.10;1.60;;;7.70;90.30;;;;;;4859254;29;20145;-86
2021/03/18 16:53:46;;;;;;;6.72;1.20;;;7.70;90.40;;;;;;4897383;29;20107;-86
2021/03/18 16:56:27;;;;;;;6.47;1.40;;;7.70;90.40;;;;;;4858697;29;20065;-87
2021/03/18 16:59:11;;;;;;;9.75;1.75;;;7.70;90.50;;;;;;4859218;29;20124;-86
2021/03/18 17:01:37;;;;;;;7.72;1.60;;;7.70;90.50;;;;;;4858373;29;20523;-87
2021/03/18 17:04:04;;;;;;;8.85;1.90;;;7.60;90.40;;;;;;4859337;29;20049;-85
2021/03/18 17:07:02;;;;;;;8.70;1.65;;;7.60;90.40;;;;;;4858776;29;20053;-86
2021/03/18 17:09:28;;;;;;;14.65;3.00;;;7.60;90.30;;;;;;4887966;29;20461;-86
2021/03/18 17:11:54;;;;;;;5.40;1.50;;;7.60;90.20;;;;;;4898205;29;20059;-86
2021/03/18 17:14:22;;;;;;;9.93;2.03;;;7.50;90.20;;;;;;4898230;29;20058;-87
2021/03/18 17:16:48;;;;;;;9.80;2.25;;;7.50;90.10;;;;;;4897765;29;20053;-87
2021/03/18 17:19:14;;;;;;;12.93;3.58;;;7.50;90.10;;;;;;4898025;29;20097;-87
2021/03/18 17:21:43;;;;;;;11.27;2.40;;;7.40;90.40;;;;;;4898471;29;20062;-87
2021/03/18 17:24:09;;;;;;;14.43;3.05;;;7.40;90.30;;;;;;4897207;29;20057;-86
2021/03/18 17:26:37;;;;;;;12.57;2.42;;;7.40;90.10;;;;;;4898276;29;20049;-87
2021/03/18 17:29:07;;;;;;;11.02;2.00;;;7.30;89.70;;;;;;4898029;29;20056;-86
2021/03/18 17:31:33;;;;;;;10.23;2.20;;;7.30;89.90;;;;;;4897016;29;20127;-86
2021/03/18 17:33:58;;;;;;;10.68;2.13;;;7.20;89.90;;;;;;4898026;29;20140;-86
2021/03/18 17:36:27;;;;;;;9.13;2.28;;;7.20;90.10;;;;;;4897022;29;20053;-86
2021/03/18 17:38:55;;;;;;;10.35;2.28;;;7.20;90.30;;;;;;4898021;29;20086;-86
2021/03/18 17:41:21;;;;;;;10.85;2.20;;;7.20;90.30;;;;;;4898071;29;20387;-87
2021/03/18 17:43:51;;;;;;;8.38;2.20;;;7.30;90.30;;;;;;4897464;29;20051;-89
2021/03/18 17:46:31;;;;;;;10.75;2.47;;;7.20;90.50;;;;;;4899731;29;20056;-84
2021/03/18 17:48:57;;;;;;;10.20;2.28;;;7.20;90.20;;;;;;4904529;29;20428;-83